Terminal Aerodrome Forecast
Issued by NWS

Home | Current Version | Previous Version | Text Only | Print | Product List | Glossary On
Versions: 1 2 3 4 5 6 7 8 9 10 11 12 13 14 15 16 17 18 19 20 21 22 23 24
697
FTUS44 KFWD 201459 AAA
TAFAFW
TAF AMD
KAFW 201459Z 2015/2112 15010KT P6SM SCT025 SCT150 BKN250
     FM201700 15014KT P6SM VCSH SCT025 BKN050 BKN250
     FM210000 15012KT P6SM SCT030 BKN050 BKN250
     FM210200 16013KT P6SM BKN010=

USA.gov is the U.S. government's official web portal to all federal, state and local government web resources and services.